sensor_id;sensor_type;location;lat;lon;timestamp;P1;durP1;ratioP1;P2;durP2;ratioP2
2099;SDS011;1055;48.854;9.302;2023-06-10T00:01:41;12.77;;;11.47;;
2099;SDS011;1055;48.854;9.302;2023-06-10T00:04:08;13.13;;;11.83;;
2099;SDS011;1055;48.854;9.302;2023-06-10T00:06:34;14.00;;;12.13;;
2099;SDS011;1055;48.854;9.302;2023-06-10T00:09:04;13.37;;;12.03;;
2099;SDS011;1055;48.854;9.302;2023-06-10T00:11:31;16.33;;;14.73;;
2099;SDS011;1055;48.854;9.302;2023-06-10T00:13:57;17.60;;;13.90;;
2099;SDS011;1055;48.854;9.302;2023-06-10T00:16:23;13.73;;;12.30;;
2099;SDS011;1055;48.854;9.302;2023-06-10T00:18:50;12.43;;;11.13;;
2099;SDS011;1055;48.854;9.302;2023-06-10T00:21:16;12.33;;;10.87;;
2099;SDS011;1055;48.854;9.302;2023-06-10T00:23:42;12.03;;;10.73;;
2099;SDS011;1055;48.854;9.302;2023-06-10T00:26:08;10.90;;;9.80;;
2099;SDS011;1055;48.854;9.302;2023-06-10T00:28:34;11.07;;;9.93;;
2099;SDS011;1055;48.854;9.302;2023-06-10T00:31:00;12.10;;;10.67;;
2099;SDS011;1055;48.854;9.302;2023-06-10T00:33:27;10.97;;;9.87;;
2099;SDS011;1055;48.854;9.302;2023-06-10T00:35:53;11.90;;;10.50;;
2099;SDS011;1055;48.854;9.302;2023-06-10T00:38:18;13.87;;;10.93;;
2099;SDS011;1055;48.854;9.302;2023-06-10T00:40:44;12.40;;;11.10;;
2099;SDS011;1055;48.854;9.302;2023-06-10T00:43:10;11.80;;;10.60;;
2099;SDS011;1055;48.854;9.302;2023-06-10T00:45:35;12.20;;;11.00;;
2099;SDS011;1055;48.854;9.302;2023-06-10T00:48:01;11.20;;;10.00;;
2099;SDS011;1055;48.854;9.302;2023-06-10T00:50:27;11.30;;;9.73;;
2099;SDS011;1055;48.854;9.302;2023-06-10T00:52:53;10.50;;;9.13;;
2099;SDS011;1055;48.854;9.302;2023-06-10T00:55:20;10.73;;;8.80;;
2099;SDS011;1055;48.854;9.302;2023-06-10T00:57:46;10.40;;;9.03;;
2099;SDS011;1055;48.854;9.302;2023-06-10T01:00:13;11.00;;;8.87;;
2099;SDS011;1055;48.854;9.302;2023-06-10T01:02:40;12.77;;;9.50;;
2099;SDS011;1055;48.854;9.302;2023-06-10T01:05:07;10.20;;;8.43;;
2099;SDS011;1055;48.854;9.302;2023-06-10T01:10:16;10.10;;;7.97;;
2099;SDS011;1055;48.854;9.302;2023-06-10T01:15:31;9.87;;;7.80;;
2099;SDS011;1055;48.854;9.302;2023-06-10T01:18:01;11.87;;;9.20;;
2099;SDS011;1055;48.854;9.302;2023-06-10T01:20:29;9.40;;;8.17;;
2099;SDS011;1055;48.854;9.302;2023-06-10T01:22:57;9.87;;;8.27;;
2099;SDS011;1055;48.854;9.302;2023-06-10T01:25:25;9.73;;;8.07;;
2099;SDS011;1055;48.854;9.302;2023-06-10T01:30:41;9.50;;;7.70;;
2099;SDS011;1055;48.854;9.302;2023-06-10T01:33:09;10.20;;;8.30;;
2099;SDS011;1055;48.854;9.302;2023-06-10T01:35:36;10.30;;;8.50;;
2099;SDS011;1055;48.854;9.302;2023-06-10T01:38:04;10.63;;;8.90;;
2099;SDS011;1055;48.854;9.302;2023-06-10T01:40:30;10.67;;;8.80;;
2099;SDS011;1055;48.854;9.302;2023-06-10T01:42:57;11.10;;;7.93;;
2099;SDS011;1055;48.854;9.302;2023-06-10T01:45:23;14.33;;;8.30;;
2099;SDS011;1055;48.854;9.302;2023-06-10T01:47:48;10.30;;;7.90;;
2099;SDS011;1055;48.854;9.302;2023-06-10T01:50:14;10.20;;;7.67;;
2099;SDS011;1055;48.854;9.302;2023-06-10T01:52:41;10.40;;;8.50;;
2099;SDS011;1055;48.854;9.302;2023-06-10T01:55:07;9.30;;;7.53;;
2099;SDS011;1055;48.854;9.302;2023-06-10T01:57:32;10.63;;;7.73;;
2099;SDS011;1055;48.854;9.302;2023-06-10T01:59:58;11.97;;;8.80;;
2099;SDS011;1055;48.854;9.302;2023-06-10T02:02:24;10.10;;;8.50;;
2099;SDS011;1055;48.854;9.302;2023-06-10T02:04:50;10.30;;;7.70;;
2099;SDS011;1055;48.854;9.302;2023-06-10T02:07:15;10.10;;;8.40;;
2099;SDS011;1055;48.854;9.302;2023-06-10T02:09:41;10.07;;;8.40;;
2099;SDS011;1055;48.854;9.302;2023-06-10T02:12:06;10.57;;;8.00;;
2099;SDS011;1055;48.854;9.302;2023-06-10T02:14:33;9.80;;;7.90;;
2099;SDS011;1055;48.854;9.302;2023-06-10T02:16:58;9.43;;;7.60;;
2099;SDS011;1055;48.854;9.302;2023-06-10T02:19:24;11.30;;;7.43;;
2099;SDS011;1055;48.854;9.302;2023-06-10T02:21:51;9.40;;;7.70;;
2099;SDS011;1055;48.854;9.302;2023-06-10T02:24:18;10.10;;;7.60;;
2099;SDS011;1055;48.854;9.302;2023-06-10T02:26:43;10.20;;;7.03;;
2099;SDS011;1055;48.854;9.302;2023-06-10T02:29:10;9.77;;;7.07;;
2099;SDS011;1055;48.854;9.302;2023-06-10T02:31:35;8.10;;;6.10;;
2099;SDS011;1055;48.854;9.302;2023-06-10T02:34:02;8.83;;;6.90;;
2099;SDS011;1055;48.854;9.302;2023-06-10T02:36:29;7.73;;;6.03;;
2099;SDS011;1055;48.854;9.302;2023-06-10T02:38:54;9.77;;;6.70;;
2099;SDS011;1055;48.854;9.302;2023-06-10T02:41:20;8.67;;;6.77;;
2099;SDS011;1055;48.854;9.302;2023-06-10T02:43:46;9.07;;;6.70;;
2099;SDS011;1055;48.854;9.302;2023-06-10T02:46:13;8.40;;;6.50;;
2099;SDS011;1055;48.854;9.302;2023-06-10T02:48:45;9.27;;;7.23;;
2099;SDS011;1055;48.854;9.302;2023-06-10T02:51:11;9.20;;;7.00;;
2099;SDS011;1055;48.854;9.302;2023-06-10T02:53:36;10.83;;;7.53;;
2099;SDS011;1055;48.854;9.302;2023-06-10T02:56:02;9.77;;;7.10;;
2099;SDS011;1055;48.854;9.302;2023-06-10T02:58:28;9.10;;;7.23;;
2099;SDS011;1055;48.854;9.302;2023-06-10T03:00:54;9.47;;;7.10;;
2099;SDS011;1055;48.854;9.302;2023-06-10T03:03:20;11.60;;;7.53;;
2099;SDS011;1055;48.854;9.302;2023-06-10T03:05:47;13.27;;;7.30;;
2099;SDS011;1055;48.854;9.302;2023-06-10T03:08:13;10.70;;;8.13;;
2099;SDS011;1055;48.854;9.302;2023-06-10T03:10:38;10.27;;;9.07;;
2099;SDS011;1055;48.854;9.302;2023-06-10T03:13:04;12.50;;;11.20;;
2099;SDS011;1055;48.854;9.302;2023-06-10T03:15:30;14.43;;;11.03;;
2099;SDS011;1055;48.854;9.302;2023-06-10T03:17:57;14.87;;;11.63;;
2099;SDS011;1055;48.854;9.302;2023-06-10T03:20:25;14.37;;;11.60;;
2099;SDS011;1055;48.854;9.302;2023-06-10T03:22:50;13.23;;;11.17;;
2099;SDS011;1055;48.854;9.302;2023-06-10T03:25:16;11.50;;;10.00;;
2099;SDS011;1055;48.854;9.302;2023-06-10T03:27:42;12.63;;;10.80;;
2099;SDS011;1055;48.854;9.302;2023-06-10T03:30:08;12.93;;;10.80;;
2099;SDS011;1055;48.854;9.302;2023-06-10T03:32:34;10.97;;;9.43;;
2099;SDS011;1055;48.854;9.302;2023-06-10T03:35:00;12.90;;;9.63;;
2099;SDS011;1055;48.854;9.302;2023-06-10T03:37:26;12.00;;;9.10;;
2099;SDS011;1055;48.854;9.302;2023-06-10T03:39:51;10.17;;;8.83;;
2099;SDS011;1055;48.854;9.302;2023-06-10T03:42:17;11.93;;;9.33;;
2099;SDS011;1055;48.854;9.302;2023-06-10T03:44:43;11.33;;;8.80;;
2099;SDS011;1055;48.854;9.302;2023-06-10T03:47:08;10.10;;;7.97;;
2099;SDS011;1055;48.854;9.302;2023-06-10T03:49:34;14.30;;;9.30;;
2099;SDS011;1055;48.854;9.302;2023-06-10T03:52:01;10.83;;;8.00;;
2099;SDS011;1055;48.854;9.302;2023-06-10T03:54:27;12.53;;;9.00;;
2099;SDS011;1055;48.854;9.302;2023-06-10T03:56:53;11.00;;;8.90;;
2099;SDS011;1055;48.854;9.302;2023-06-10T03:59:18;10.40;;;8.53;;
2099;SDS011;1055;48.854;9.302;2023-06-10T04:01:44;11.20;;;8.57;;
2099;SDS011;1055;48.854;9.302;2023-06-10T04:04:11;10.40;;;8.27;;
2099;SDS011;1055;48.854;9.302;2023-06-10T04:06:39;10.20;;;7.87;;
2099;SDS011;1055;48.854;9.302;2023-06-10T04:09:06;10.37;;;8.47;;
2099;SDS011;1055;48.854;9.302;2023-06-10T04:11:33;9.93;;;7.87;;
2099;SDS011;1055;48.854;9.302;2023-06-10T04:13:59;11.13;;;7.70;;
2099;SDS011;1055;48.854;9.302;2023-06-10T04:16:24;10.20;;;7.67;;
2099;SDS011;1055;48.854;9.302;2023-06-10T04:18:50;11.50;;;8.10;;
2099;SDS011;1055;48.854;9.302;2023-06-10T04:21:15;10.30;;;8.87;;
2099;SDS011;1055;48.854;9.302;2023-06-10T04:23:41;11.80;;;8.30;;
2099;SDS011;1055;48.854;9.302;2023-06-10T04:26:07;17.97;;;8.80;;
2099;SDS011;1055;48.854;9.302;2023-06-10T04:28:33;9.70;;;8.10;;
2099;SDS011;1055;48.854;9.302;2023-06-10T04:30:58;10.80;;;9.23;;
2099;SDS011;1055;48.854;9.302;2023-06-10T04:33:24;10.10;;;8.70;;
2099;SDS011;1055;48.854;9.302;2023-06-10T04:35:50;11.70;;;9.87;;
2099;SDS011;1055;48.854;9.302;2023-06-10T04:38:15;13.43;;;8.50;;
2099;SDS011;1055;48.854;9.302;2023-06-10T04:40:41;9.97;;;8.67;;
2099;SDS011;1055;48.854;9.302;2023-06-10T04:43:07;10.00;;;8.63;;
2099;SDS011;1055;48.854;9.302;2023-06-10T04:45:33;10.23;;;8.53;;
2099;SDS011;1055;48.854;9.302;2023-06-10T04:47:58;11.50;;;9.47;;
2099;SDS011;1055;48.854;9.302;2023-06-10T04:50:24;10.70;;;9.07;;
2099;SDS011;1055;48.854;9.302;2023-06-10T04:52:50;12.93;;;9.33;;
2099;SDS011;1055;48.854;9.302;2023-06-10T04:55:15;12.43;;;9.63;;
2099;SDS011;1055;48.854;9.302;2023-06-10T04:57:41;10.30;;;8.77;;
2099;SDS011;1055;48.854;9.302;2023-06-10T05:00:07;11.97;;;8.63;;
2099;SDS011;1055;48.854;9.302;2023-06-10T05:02:33;12.43;;;9.50;;
2099;SDS011;1055;48.854;9.302;2023-06-10T05:04:59;13.83;;;9.90;;
2099;SDS011;1055;48.854;9.302;2023-06-10T05:07:25;14.47;;;10.03;;
2099;SDS011;1055;48.854;9.302;2023-06-10T05:09:50;10.43;;;9.00;;
2099;SDS011;1055;48.854;9.302;2023-06-10T05:12:16;11.63;;;9.20;;
2099;SDS011;1055;48.854;9.302;2023-06-10T05:14:42;10.90;;;8.23;;
2099;SDS011;1055;48.854;9.302;2023-06-10T05:17:07;10.10;;;8.10;;
2099;SDS011;1055;48.854;9.302;2023-06-10T05:19:33;11.97;;;9.07;;
2099;SDS011;1055;48.854;9.302;2023-06-10T05:22:00;10.93;;;9.17;;
2099;SDS011;1055;48.854;9.302;2023-06-10T05:24:26;11.30;;;9.57;;
2099;SDS011;1055;48.854;9.302;2023-06-10T05:26:52;11.67;;;8.90;;
2099;SDS011;1055;48.854;9.302;2023-06-10T05:29:18;9.97;;;8.63;;
2099;SDS011;1055;48.854;9.302;2023-06-10T05:31:44;10.50;;;8.13;;
2099;SDS011;1055;48.854;9.302;2023-06-10T05:34:10;10.10;;;7.90;;
2099;SDS011;1055;48.854;9.302;2023-06-10T05:36:36;10.93;;;8.67;;
2099;SDS011;1055;48.854;9.302;2023-06-10T05:39:01;9.00;;;7.33;;
2099;SDS011;1055;48.854;9.302;2023-06-10T05:41:27;10.87;;;8.37;;
2099;SDS011;1055;48.854;9.302;2023-06-10T05:43:53;9.53;;;7.83;;
2099;SDS011;1055;48.854;9.302;2023-06-10T05:46:19;10.27;;;7.80;;
2099;SDS011;1055;48.854;9.302;2023-06-10T05:48:45;11.70;;;7.53;;
2099;SDS011;1055;48.854;9.302;2023-06-10T05:51:10;10.87;;;8.33;;
2099;SDS011;1055;48.854;9.302;2023-06-10T05:53:36;10.47;;;7.90;;
2099;SDS011;1055;48.854;9.302;2023-06-10T05:56:02;10.50;;;7.53;;
2099;SDS011;1055;48.854;9.302;2023-06-10T05:58:27;10.90;;;8.17;;
2099;SDS011;1055;48.854;9.302;2023-06-10T06:00:53;10.37;;;7.93;;
2099;SDS011;1055;48.854;9.302;2023-06-10T06:03:19;12.03;;;7.93;;
2099;SDS011;1055;48.854;9.302;2023-06-10T06:05:44;11.47;;;8.20;;
2099;SDS011;1055;48.854;9.302;2023-06-10T06:08:11;10.63;;;8.40;;
2099;SDS011;1055;48.854;9.302;2023-06-10T06:10:38;15.73;;;8.27;;
2099;SDS011;1055;48.854;9.302;2023-06-10T06:13:04;10.77;;;8.83;;
2099;SDS011;1055;48.854;9.302;2023-06-10T06:15:29;10.40;;;8.33;;
2099;SDS011;1055;48.854;9.302;2023-06-10T06:17:55;9.90;;;8.03;;
2099;SDS011;1055;48.854;9.302;2023-06-10T06:20:21;10.67;;;8.17;;
2099;SDS011;1055;48.854;9.302;2023-06-10T06:22:47;11.70;;;8.77;;
2099;SDS011;1055;48.854;9.302;2023-06-10T06:25:13;11.03;;;8.50;;
2099;SDS011;1055;48.854;9.302;2023-06-10T06:27:39;10.00;;;8.20;;
2099;SDS011;1055;48.854;9.302;2023-06-10T06:30:04;12.97;;;8.30;;
2099;SDS011;1055;48.854;9.302;2023-06-10T06:32:31;10.47;;;8.17;;
2099;SDS011;1055;48.854;9.302;2023-06-10T06:34:56;9.20;;;7.70;;
2099;SDS011;1055;48.854;9.302;2023-06-10T06:37:23;10.40;;;8.50;;
2099;SDS011;1055;48.854;9.302;2023-06-10T06:39:50;11.87;;;9.73;;
2099;SDS011;1055;48.854;9.302;2023-06-10T06:42:16;9.83;;;8.20;;
2099;SDS011;1055;48.854;9.302;2023-06-10T06:44:42;9.80;;;7.97;;
2099;SDS011;1055;48.854;9.302;2023-06-10T06:47:08;11.70;;;8.03;;
2099;SDS011;1055;48.854;9.302;2023-06-10T06:49:34;9.60;;;7.67;;
2099;SDS011;1055;48.854;9.302;2023-06-10T06:51:59;9.37;;;8.00;;
2099;SDS011;1055;48.854;9.302;2023-06-10T06:54:25;9.97;;;8.27;;
2099;SDS011;1055;48.854;9.302;2023-06-10T06:56:50;12.33;;;9.20;;
2099;SDS011;1055;48.854;9.302;2023-06-10T06:59:16;10.03;;;8.27;;
2099;SDS011;1055;48.854;9.302;2023-06-10T07:01:44;10.37;;;7.80;;
2099;SDS011;1055;48.854;9.302;2023-06-10T07:04:10;10.33;;;8.17;;
2099;SDS011;1055;48.854;9.302;2023-06-10T07:06:36;9.50;;;7.53;;
2099;SDS011;1055;48.854;9.302;2023-06-10T07:09:03;10.20;;;7.67;;
2099;SDS011;1055;48.854;9.302;2023-06-10T07:11:29;9.80;;;8.10;;
2099;SDS011;1055;48.854;9.302;2023-06-10T07:13:55;9.07;;;7.00;;
2099;SDS011;1055;48.854;9.302;2023-06-10T07:16:21;9.77;;;8.23;;
2099;SDS011;1055;48.854;9.302;2023-06-10T07:18:47;9.87;;;8.07;;
2099;SDS011;1055;48.854;9.302;2023-06-10T07:21:13;9.90;;;7.90;;
2099;SDS011;1055;48.854;9.302;2023-06-10T07:23:42;12.70;;;7.60;;
2099;SDS011;1055;48.854;9.302;2023-06-10T07:26:08;10.30;;;8.57;;
2099;SDS011;1055;48.854;9.302;2023-06-10T07:28:36;9.90;;;7.97;;
2099;SDS011;1055;48.854;9.302;2023-06-10T07:31:04;9.57;;;7.80;;
2099;SDS011;1055;48.854;9.302;2023-06-10T07:33:30;10.03;;;7.90;;
2099;SDS011;1055;48.854;9.302;2023-06-10T07:35:56;10.90;;;8.57;;
2099;SDS011;1055;48.854;9.302;2023-06-10T07:38:21;9.33;;;7.63;;
2099;SDS011;1055;48.854;9.302;2023-06-10T07:40:47;8.67;;;7.00;;
2099;SDS011;1055;48.854;9.302;2023-06-10T07:43:12;9.90;;;8.00;;
2099;SDS011;1055;48.854;9.302;2023-06-10T07:45:41;9.97;;;7.73;;
2099;SDS011;1055;48.854;9.302;2023-06-10T07:48:07;10.30;;;7.60;;
2099;SDS011;1055;48.854;9.302;2023-06-10T07:50:32;9.03;;;7.10;;
2099;SDS011;1055;48.854;9.302;2023-06-10T07:52:58;10.77;;;8.43;;
2099;SDS011;1055;48.854;9.302;2023-06-10T07:55:24;9.97;;;7.77;;
2099;SDS011;1055;48.854;9.302;2023-06-10T07:57:51;10.27;;;7.77;;
2099;SDS011;1055;48.854;9.302;2023-06-10T08:00:20;14.17;;;8.53;;
2099;SDS011;1055;48.854;9.302;2023-06-10T08:02:45;10.10;;;8.27;;
2099;SDS011;1055;48.854;9.302;2023-06-10T08:05:11;9.00;;;7.30;;
2099;SDS011;1055;48.854;9.302;2023-06-10T08:07:37;9.03;;;7.80;;
2099;SDS011;1055;48.854;9.302;2023-06-10T08:10:04;9.03;;;7.80;;
2099;SDS011;1055;48.854;9.302;2023-06-10T08:12:30;9.20;;;7.83;;
2099;SDS011;1055;48.854;9.302;2023-06-10T08:14:56;10.13;;;8.47;;
2099;SDS011;1055;48.854;9.302;2023-06-10T08:17:22;10.90;;;8.43;;
2099;SDS011;1055;48.854;9.302;2023-06-10T08:19:48;10.27;;;7.83;;
2099;SDS011;1055;48.854;9.302;2023-06-10T08:22:14;9.70;;;8.30;;
2099;SDS011;1055;48.854;9.302;2023-06-10T08:24:40;9.60;;;7.20;;
2099;SDS011;1055;48.854;9.302;2023-06-10T08:27:05;9.07;;;7.77;;
2099;SDS011;1055;48.854;9.302;2023-06-10T08:29:31;9.50;;;8.50;;
2099;SDS011;1055;48.854;9.302;2023-06-10T08:31:57;10.80;;;8.53;;
2099;SDS011;1055;48.854;9.302;2023-06-10T08:34:23;9.40;;;8.20;;
2099;SDS011;1055;48.854;9.302;2023-06-10T08:36:49;11.43;;;8.37;;
2099;SDS011;1055;48.854;9.302;2023-06-10T08:39:20;10.17;;;8.47;;
2099;SDS011;1055;48.854;9.302;2023-06-10T08:41:51;11.87;;;8.40;;
2099;SDS011;1055;48.854;9.302;2023-06-10T08:44:36;9.13;;;7.50;;
2099;SDS011;1055;48.854;9.302;2023-06-10T08:47:14;11.70;;;8.43;;
2099;SDS011;1055;48.854;9.302;2023-06-10T08:49:43;9.07;;;7.50;;
2099;SDS011;1055;48.854;9.302;2023-06-10T08:52:16;9.00;;;7.33;;
2099;SDS011;1055;48.854;9.302;2023-06-10T08:54:52;10.70;;;9.07;;
2099;SDS011;1055;48.854;9.302;2023-06-10T08:57:24;9.60;;;8.03;;
2099;SDS011;1055;48.854;9.302;2023-06-10T08:59:50;8.57;;;7.33;;
2099;SDS011;1055;48.854;9.302;2023-06-10T09:02:17;9.00;;;7.50;;
2099;SDS011;1055;48.854;9.302;2023-06-10T09:04:44;9.00;;;8.00;;
2099;SDS011;1055;48.854;9.302;2023-06-10T09:07:11;9.20;;;7.77;;
2099;SDS011;1055;48.854;9.302;2023-06-10T09:09:39;9.10;;;7.70;;
2099;SDS011;1055;48.854;9.302;2023-06-10T09:12:07;9.17;;;8.03;;
2099;SDS011;1055;48.854;9.302;2023-06-10T09:14:33;9.93;;;8.30;;
2099;SDS011;1055;48.854;9.302;2023-06-10T09:16:59;8.90;;;7.73;;
2099;SDS011;1055;48.854;9.302;2023-06-10T09:19:27;9.10;;;8.00;;
2099;SDS011;1055;48.854;9.302;2023-06-10T09:21:54;10.27;;;7.33;;
2099;SDS011;1055;48.854;9.302;2023-06-10T09:24:22;9.20;;;7.30;;
2099;SDS011;1055;48.854;9.302;2023-06-10T09:26:48;8.60;;;7.43;;
2099;SDS011;1055;48.854;9.302;2023-06-10T09:29:16;9.07;;;7.00;;
2099;SDS011;1055;48.854;9.302;2023-06-10T09:31:42;10.70;;;8.13;;
2099;SDS011;1055;48.854;9.302;2023-06-10T09:34:10;8.40;;;7.53;;
2099;SDS011;1055;48.854;9.302;2023-06-10T09:36:37;9.30;;;7.60;;
2099;SDS011;1055;48.854;9.302;2023-06-10T09:39:04;10.00;;;7.90;;
2099;SDS011;1055;48.854;9.302;2023-06-10T09:41:35;10.50;;;7.23;;
2099;SDS011;1055;48.854;9.302;2023-06-10T09:44:13;8.10;;;7.27;;
2099;SDS011;1055;48.854;9.302;2023-06-10T09:46:45;10.27;;;7.40;;
2099;SDS011;1055;48.854;9.302;2023-06-10T09:49:11;9.70;;;7.70;;
2099;SDS011;1055;48.854;9.302;2023-06-10T09:51:37;10.77;;;8.37;;
2099;SDS011;1055;48.854;9.302;2023-06-10T09:54:13;11.70;;;8.57;;
2099;SDS011;1055;48.854;9.302;2023-06-10T09:56:39;10.50;;;8.27;;
2099;SDS011;1055;48.854;9.302;2023-06-10T09:59:07;9.97;;;7.73;;
2099;SDS011;1055;48.854;9.302;2023-06-10T10:01:34;9.23;;;7.73;;
2099;SDS011;1055;48.854;9.302;2023-06-10T10:04:01;10.70;;;8.03;;
2099;SDS011;1055;48.854;9.302;2023-06-10T10:06:28;9.30;;;8.07;;
2099;SDS011;1055;48.854;9.302;2023-06-10T10:08:54;9.20;;;7.90;;
2099;SDS011;1055;48.854;9.302;2023-06-10T10:11:21;9.43;;;8.00;;
2099;SDS011;1055;48.854;9.302;2023-06-10T10:13:48;9.77;;;7.70;;
2099;SDS011;1055;48.854;9.302;2023-06-10T10:16:30;10.30;;;8.57;;
2099;SDS011;1055;48.854;9.302;2023-06-10T10:19:04;10.67;;;8.40;;
2099;SDS011;1055;48.854;9.302;2023-06-10T10:21:37;9.20;;;8.17;;
2099;SDS011;1055;48.854;9.302;2023-06-10T10:26:47;9.13;;;8.23;;
2099;SDS011;1055;48.854;9.302;2023-06-10T10:29:24;10.77;;;8.67;;
2099;SDS011;1055;48.854;9.302;2023-06-10T10:31:56;8.70;;;7.50;;
2099;SDS011;1055;48.854;9.302;2023-06-10T10:37:20;10.60;;;8.63;;
2099;SDS011;1055;48.854;9.302;2023-06-10T10:39:46;9.73;;;8.67;;
2099;SDS011;1055;48.854;9.302;2023-06-10T10:42:12;9.10;;;8.20;;
2099;SDS011;1055;48.854;9.302;2023-06-10T10:44:39;8.93;;;8.00;;
2099;SDS011;1055;48.854;9.302;2023-06-10T10:47:08;9.07;;;8.07;;
2099;SDS011;1055;48.854;9.302;2023-06-10T10:49:35;9.30;;;8.20;;
2099;SDS011;1055;48.854;9.302;2023-06-10T10:52:02;7.93;;;7.10;;
2099;SDS011;1055;48.854;9.302;2023-06-10T10:54:35;9.90;;;8.63;;
2099;SDS011;1055;48.854;9.302;2023-06-10T10:57:18;9.30;;;8.00;;
2099;SDS011;1055;48.854;9.302;2023-06-10T10:59:45;9.27;;;8.37;;
2099;SDS011;1055;48.854;9.302;2023-06-10T11:02:17;8.30;;;7.17;;
2099;SDS011;1055;48.854;9.302;2023-06-10T11:04:56;8.97;;;7.87;;
2099;SDS011;1055;48.854;9.302;2023-06-10T11:07:22;9.30;;;7.93;;
2099;SDS011;1055;48.854;9.302;2023-06-10T11:12:26;12.03;;;8.47;;
2099;SDS011;1055;48.854;9.302;2023-06-10T11:15:05;8.77;;;7.70;;
2099;SDS011;1055;48.854;9.302;2023-06-10T11:17:31;9.10;;;7.40;;
2099;SDS011;1055;48.854;9.302;2023-06-10T11:19:58;9.77;;;8.50;;
2099;SDS011;1055;48.854;9.302;2023-06-10T11:22:24;8.53;;;7.63;;
2099;SDS011;1055;48.854;9.302;2023-06-10T11:24:49;10.37;;;9.23;;
2099;SDS011;1055;48.854;9.302;2023-06-10T11:27:22;8.30;;;7.43;;
2099;SDS011;1055;48.854;9.302;2023-06-10T11:29:56;9.57;;;7.70;;
2099;SDS011;1055;48.854;9.302;2023-06-10T11:32:33;8.60;;;7.40;;
2099;SDS011;1055;48.854;9.302;2023-06-10T11:34:59;8.37;;;7.30;;
2099;SDS011;1055;48.854;9.302;2023-06-10T11:37:29;8.63;;;7.60;;
2099;SDS011;1055;48.854;9.302;2023-06-10T11:39:55;8.23;;;6.87;;
2099;SDS011;1055;48.854;9.302;2023-06-10T11:42:21;8.23;;;7.23;;
2099;SDS011;1055;48.854;9.302;2023-06-10T11:44:54;10.10;;;7.57;;
2099;SDS011;1055;48.854;9.302;2023-06-10T11:47:20;9.50;;;7.47;;
2099;SDS011;1055;48.854;9.302;2023-06-10T11:49:55;8.67;;;7.10;;
2099;SDS011;1055;48.854;9.302;2023-06-10T11:52:31;8.50;;;7.50;;
2099;SDS011;1055;48.854;9.302;2023-06-10T11:54:58;8.67;;;7.60;;
2099;SDS011;1055;48.854;9.302;2023-06-10T11:57:24;7.40;;;6.23;;
2099;SDS011;1055;48.854;9.302;2023-06-10T11:59:50;7.50;;;5.77;;
2099;SDS011;1055;48.854;9.302;2023-06-10T12:02:16;9.53;;;5.40;;
2099;SDS011;1055;48.854;9.302;2023-06-10T12:04:42;7.57;;;6.50;;
2099;SDS011;1055;48.854;9.302;2023-06-10T12:07:08;7.23;;;5.80;;
2099;SDS011;1055;48.854;9.302;2023-06-10T12:09:33;8.17;;;5.90;;
2099;SDS011;1055;48.854;9.302;2023-06-10T12:17:34;7.90;;;6.50;;
2099;SDS011;1055;48.854;9.302;2023-06-10T12:20:03;9.00;;;7.10;;
2099;SDS011;1055;48.854;9.302;2023-06-10T12:25:06;7.60;;;6.43;;
2099;SDS011;1055;48.854;9.302;2023-06-10T12:27:33;8.63;;;6.80;;
2099;SDS011;1055;48.854;9.302;2023-06-10T12:30:00;8.40;;;6.67;;
2099;SDS011;1055;48.854;9.302;2023-06-10T12:35:05;8.00;;;6.13;;
2099;SDS011;1055;48.854;9.302;2023-06-10T12:37:32;7.40;;;6.30;;
2099;SDS011;1055;48.854;9.302;2023-06-10T12:40:02;9.40;;;6.30;;
2099;SDS011;1055;48.854;9.302;2023-06-10T12:42:28;7.57;;;6.53;;
2099;SDS011;1055;48.854;9.302;2023-06-10T12:44:55;6.80;;;5.80;;
2099;SDS011;1055;48.854;9.302;2023-06-10T12:47:32;8.00;;;6.37;;
2099;SDS011;1055;48.854;9.302;2023-06-10T12:50:00;7.77;;;6.30;;
2099;SDS011;1055;48.854;9.302;2023-06-10T12:52:26;7.40;;;6.57;;
2099;SDS011;1055;48.854;9.302;2023-06-10T12:54:53;8.00;;;6.30;;
2099;SDS011;1055;48.854;9.302;2023-06-10T12:57:19;6.80;;;5.53;;
2099;SDS011;1055;48.854;9.302;2023-06-10T12:59:48;7.13;;;5.77;;
2099;SDS011;1055;48.854;9.302;2023-06-10T13:02:20;6.70;;;5.90;;
2099;SDS011;1055;48.854;9.302;2023-06-10T13:04:49;7.53;;;5.70;;
2099;SDS011;1055;48.854;9.302;2023-06-10T13:07:15;7.87;;;6.33;;
2099;SDS011;1055;48.854;9.302;2023-06-10T13:09:41;8.90;;;5.80;;
2099;SDS011;1055;48.854;9.302;2023-06-10T13:12:07;7.00;;;5.90;;
2099;SDS011;1055;48.854;9.302;2023-06-10T13:14:33;7.63;;;5.83;;
2099;SDS011;1055;48.854;9.302;2023-06-10T13:16:59;8.07;;;6.40;;
2099;SDS011;1055;48.854;9.302;2023-06-10T13:19:24;10.07;;;6.40;;
2099;SDS011;1055;48.854;9.302;2023-06-10T13:21:51;6.93;;;5.70;;
2099;SDS011;1055;48.854;9.302;2023-06-10T13:24:17;7.50;;;5.90;;
2099;SDS011;1055;48.854;9.302;2023-06-10T13:26:42;7.80;;;6.33;;
2099;SDS011;1055;48.854;9.302;2023-06-10T13:29:08;8.00;;;6.53;;
2099;SDS011;1055;48.854;9.302;2023-06-10T13:31:38;9.47;;;5.93;;
2099;SDS011;1055;48.854;9.302;2023-06-10T13:34:05;7.10;;;5.93;;
2099;SDS011;1055;48.854;9.302;2023-06-10T13:36:31;7.63;;;6.23;;
2099;SDS011;1055;48.854;9.302;2023-06-10T13:38:57;7.03;;;6.00;;
2099;SDS011;1055;48.854;9.302;2023-06-10T13:41:22;7.30;;;5.77;;
2099;SDS011;1055;48.854;9.302;2023-06-10T13:43:48;7.33;;;5.70;;
2099;SDS011;1055;48.854;9.302;2023-06-10T13:46:13;7.10;;;5.73;;
2099;SDS011;1055;48.854;9.302;2023-06-10T13:48:39;7.87;;;6.30;;
2099;SDS011;1055;48.854;9.302;2023-06-10T13:51:05;9.93;;;6.73;;
2099;SDS011;1055;48.854;9.302;2023-06-10T13:53:31;8.13;;;6.27;;
2099;SDS011;1055;48.854;9.302;2023-06-10T13:55:57;8.77;;;6.60;;
2099;SDS011;1055;48.854;9.302;2023-06-10T13:58:22;8.03;;;6.83;;
2099;SDS011;1055;48.854;9.302;2023-06-10T14:00:48;8.10;;;7.30;;
2099;SDS011;1055;48.854;9.302;2023-06-10T14:03:14;8.40;;;7.23;;
2099;SDS011;1055;48.854;9.302;2023-06-10T14:05:40;9.97;;;6.80;;
2099;SDS011;1055;48.854;9.302;2023-06-10T14:08:07;7.63;;;6.60;;
2099;SDS011;1055;48.854;9.302;2023-06-10T14:10:37;8.60;;;7.10;;
2099;SDS011;1055;48.854;9.302;2023-06-10T14:13:07;8.87;;;7.27;;
2099;SDS011;1055;48.854;9.302;2023-06-10T14:15:33;9.63;;;8.70;;
2099;SDS011;1055;48.854;9.302;2023-06-10T14:18:04;8.90;;;7.50;;
2099;SDS011;1055;48.854;9.302;2023-06-10T14:20:31;8.30;;;7.40;;
2099;SDS011;1055;48.854;9.302;2023-06-10T14:22:57;10.23;;;7.13;;
2099;SDS011;1055;48.854;9.302;2023-06-10T14:25:23;8.20;;;7.40;;
2099;SDS011;1055;48.854;9.302;2023-06-10T14:27:49;8.17;;;6.77;;
2099;SDS011;1055;48.854;9.302;2023-06-10T14:30:15;8.70;;;7.17;;
2099;SDS011;1055;48.854;9.302;2023-06-10T14:32:41;10.20;;;9.20;;
2099;SDS011;1055;48.854;9.302;2023-06-10T14:35:07;8.90;;;7.00;;
2099;SDS011;1055;48.854;9.302;2023-06-10T14:37:33;8.20;;;7.10;;
2099;SDS011;1055;48.854;9.302;2023-06-10T14:39:58;9.03;;;8.13;;
2099;SDS011;1055;48.854;9.302;2023-06-10T14:42:24;8.07;;;7.23;;
2099;SDS011;1055;48.854;9.302;2023-06-10T14:44:49;9.17;;;8.20;;
2099;SDS011;1055;48.854;9.302;2023-06-10T14:47:15;8.90;;;7.87;;
2099;SDS011;1055;48.854;9.302;2023-06-10T14:49:41;8.33;;;7.20;;
2099;SDS011;1055;48.854;9.302;2023-06-10T14:52:07;9.07;;;7.50;;
2099;SDS011;1055;48.854;9.302;2023-06-10T14:54:33;8.87;;;7.80;;
2099;SDS011;1055;48.854;9.302;2023-06-10T14:56:59;7.93;;;7.13;;
2099;SDS011;1055;48.854;9.302;2023-06-10T14:59:25;9.00;;;6.97;;
2099;SDS011;1055;48.854;9.302;2023-06-10T15:01:50;10.47;;;9.47;;
2099;SDS011;1055;48.854;9.302;2023-06-10T15:04:16;8.73;;;7.13;;
2099;SDS011;1055;48.854;9.302;2023-06-10T15:06:41;7.70;;;6.57;;
2099;SDS011;1055;48.854;9.302;2023-06-10T15:09:08;7.50;;;6.70;;
2099;SDS011;1055;48.854;9.302;2023-06-10T15:11:34;8.40;;;7.40;;
2099;SDS011;1055;48.854;9.302;2023-06-10T15:13:59;8.87;;;6.87;;
2099;SDS011;1055;48.854;9.302;2023-06-10T15:16:25;8.50;;;7.60;;
2099;SDS011;1055;48.854;9.302;2023-06-10T15:18:50;8.07;;;6.60;;
2099;SDS011;1055;48.854;9.302;2023-06-10T15:21:16;8.10;;;6.57;;
2099;SDS011;1055;48.854;9.302;2023-06-10T15:23:42;7.50;;;6.30;;
2099;SDS011;1055;48.854;9.302;2023-06-10T15:26:07;9.17;;;7.80;;
2099;SDS011;1055;48.854;9.302;2023-06-10T15:28:33;8.80;;;6.50;;
2099;SDS011;1055;48.854;9.302;2023-06-10T15:30:58;8.50;;;6.67;;
2099;SDS011;1055;48.854;9.302;2023-06-10T15:33:24;9.40;;;5.93;;